ADDS METAR Data INFO
IDs: Format: Raw Decoded Include TAF

Data at: 1258 UTC 19 Jul 2018

KMOD 191253Z AUTO 32006KT 10SM CLR 22/14 A2985 RMK AO2 SLP108 T02170139
KMOD 191153Z AUTO 31005KT 10SM CLR 22/14 A2984 RMK AO2 SLP104 T02220144 10289 20222 50000
KMOD 191053Z AUTO 00000KT 10SM CLR 23/16 A2984 RMK AO2 SLP105 T02280156
KMOD 190953Z AUTO 00000KT 10SM CLR 24/16 A2984 RMK AO2 SLP104 T02390156
KMOD 190853Z AUTO 00000KT 10SM CLR 25/15 A2984 RMK AO2 SLP104 T02500150 58003
KMOD 190813Z AUTO 24004KT 10SM CLR 26/14 A2984 RMK AO2 T02610144
KMOD 190804Z AUTO VRB03KT 2 1/2SM HZ CLR 27/14 A2984 RMK AO2 T02670144
KMOD 190753Z AUTO 02003KT 10SM CLR 27/14 A2984 RMK AO2 SLP105 T02670144 403940189
KMOD 190653Z AUTO 03004KT 10SM CLR 27/16 A2985 RMK AO2 SLP108 T02720156
KMOD 190553Z AUTO 02006KT 10SM CLR 29/17 A2985 RMK AO2 SLP107 T02890167 10394 20289 52012
KMOD 190453Z AUTO 35008KT 10SM FEW110 32/15 A2984 RMK AO2 SLP103 T03170150
KMOD 190353Z 34005KT 10SM FEW120 33/13 A2982 RMK AO2 SLP099 T03330133
KMOD 190253Z 33008KT 10SM SCT110 36/11 A2981 RMK AO2 SLP095 T03610106 55004
KMOD 190153Z COR 33008KT 10SM SCT110 38/09 A2981 RMK AO2 SLP092 T03830089
KMOD 190053Z COR 33007KT 10SM SCT110 39/12 A2982 RMK AO2 SLP096 T03890117
KMOD 182353Z COR 32007KT 280V350 10SM SCT110 39/13 A2983 RMK AO2 SLP099 T03890128 10394 20306 56019
KMOD 182253Z 33009KT 10SM SCT110 39/12 A2983 RMK AO2 SLP102 T03890117
KMOD 182153Z 32007KT 10SM FEW110 38/13 A2986 RMK AO2 SLP110 T03780133
KMOD 182053Z 35007KT 10SM CLR 36/13 A2988 RMK AO2 SLP118 T03610133 58017
KMOD 181953Z 33010KT 10SM CLR 34/12 A2990 RMK AO2 SLP125 T03440122
KMOD 181853Z 33005KT 10SM CLR 33/12 A2992 RMK AO2 SLP132 T03280117
KMOD 181753Z 30009KT 10SM CLR 31/11 A2993 RMK AO2 SLP135 T03060111 10306 20189 51001
KMOD 181653Z 32008KT 10SM CLR 28/12 A2993 RMK AO2 SLP134 T02830117
KMOD 181553Z 31008KT 10SM CLR 26/13 A2993 RMK AO2 SLP135 T02560128
KMOD 181453Z 36005KT 10SM CLR 23/13 A2993 RMK AO2 SLP133 T02280133 53011 $
KMOD 181353Z COR 32006KT 10SM CLR 20/13 A2990 RMK AO2 SLP124 T02000128 $
KMOD 181253Z AUTO 32005KT 10SM CLR 19/11 A2990 RMK AO2 SLP124 T01890111 $
KMOD 181153Z AUTO 30004KT 10SM CLR 21/10 A2989 RMK AO2 SLP122 T02060100 10267 20200 55001 $
KMOD 181053Z AUTO 30006KT 10SM CLR 22/09 A2989 RMK AO2 SLP121 T02220089 $
KMOD 180953Z AUTO 29003KT 10SM CLR 22/11 A2989 RMK AO2 SLP122 T02220106 $
KMOD 180853Z AUTO 00000KT 10SM 23/13 A2990 RMK AO2 SLP123 T02280128 51007 $
KMOD 180753Z AUTO 01003KT 10SM 25/09 A2989 RMK AO2 SLP123 T02500094 403890189 $
KMOD 180653Z AUTO 36005KT 10SM CLR 26/06 A2989 RMK AO2 SLP120 T02610061
KMOD 180553Z AUTO 35007KT 10SM CLR 27/07 A2988 RMK AO2 SLP116 T02670072 10389 20267 53010
KMOD 180453Z AUTO 35007KT 10SM CLR 29/09 A2987 RMK AO2 SLP113 T02940094
KMOD 180353Z 33009KT 10SM FEW120 32/07 A2985 RMK AO2 SLP107 T03220067
KMOD 180253Z 33007KT 10SM FEW120 35/06 A2985 RMK AO2 SLP106 T03500056 55002
KMOD 180153Z COR 33010KT 10SM CLR 37/05 A2984 RMK AO2 SLP104 T03720050